sensor_id;sensor_type;location;lat;lon;timestamp;pressure;altitude;pressure_sealevel;temperature
53512;BMP280;39392;52.832;13.816;2022-10-26T00:01:07;101609.25;;;21.69
53512;BMP280;39392;52.832;13.816;2022-10-26T00:03:34;101609.44;;;21.67
53512;BMP280;39392;52.832;13.816;2022-10-26T00:06:02;101606.00;;;21.65
53512;BMP280;39392;52.832;13.816;2022-10-26T00:08:28;101614.91;;;21.67
53512;BMP280;39392;52.832;13.816;2022-10-26T00:10:56;101607.56;;;21.68
53512;BMP280;39392;52.832;13.816;2022-10-26T00:13:22;101613.72;;;21.70
53512;BMP280;39392;52.832;13.816;2022-10-26T00:15:49;101606.72;;;21.67
53512;BMP280;39392;52.832;13.816;2022-10-26T00:18:15;101606.19;;;21.63
53512;BMP280;39392;52.832;13.816;2022-10-26T00:20:42;101609.78;;;21.64
53512;BMP280;39392;52.832;13.816;2022-10-26T00:23:08;101617.97;;;21.64
53512;BMP280;39392;52.832;13.816;2022-10-26T00:25:34;101614.19;;;21.65
53512;BMP280;39392;52.832;13.816;2022-10-26T00:28:01;101615.09;;;21.66
53512;BMP280;39392;52.832;13.816;2022-10-26T00:30:27;101617.81;;;21.66
53512;BMP280;39392;52.832;13.816;2022-10-26T00:32:54;101622.22;;;21.67
53512;BMP280;39392;52.832;13.816;2022-10-26T00:35:20;101624.13;;;21.66
53512;BMP280;39392;52.832;13.816;2022-10-26T00:38:06;101630.41;;;21.67
53512;BMP280;39392;52.832;13.816;2022-10-26T00:40:32;101633.28;;;21.65
53512;BMP280;39392;52.832;13.816;2022-10-26T00:42:59;101626.00;;;21.66
53512;BMP280;39392;52.832;13.816;2022-10-26T00:45:27;101626.00;;;21.66
53512;BMP280;39392;52.832;13.816;2022-10-26T00:50:27;101633.31;;;21.57
53512;BMP280;39392;52.832;13.816;2022-10-26T00:52:56;101623.28;;;21.57
53512;BMP280;39392;52.832;13.816;2022-10-26T00:55:23;101622.06;;;21.60
53512;BMP280;39392;52.832;13.816;2022-10-26T00:57:51;101627.19;;;21.63
53512;BMP280;39392;52.832;13.816;2022-10-26T01:00:19;101629.41;;;21.59
53512;BMP280;39392;52.832;13.816;2022-10-26T01:02:46;101631.09;;;21.60
53512;BMP280;39392;52.832;13.816;2022-10-26T01:05:14;101625.81;;;21.59
53512;BMP280;39392;52.832;13.816;2022-10-26T01:07:42;101639.47;;;21.59
53512;BMP280;39392;52.832;13.816;2022-10-26T01:10:09;101633.31;;;21.57
53512;BMP280;39392;52.832;13.816;2022-10-26T01:12:35;101632.47;;;21.56
53512;BMP280;39392;52.832;13.816;2022-10-26T01:15:03;101632.47;;;21.56
53512;BMP280;39392;52.832;13.816;2022-10-26T01:17:52;101635.03;;;21.58
53512;BMP280;39392;52.832;13.816;2022-10-26T01:23:19;101621.03;;;21.61
53512;BMP280;39392;52.832;13.816;2022-10-26T01:28:29;101626.47;;;21.61
53512;BMP280;39392;52.832;13.816;2022-10-26T01:30:57;101622.75;;;21.62
53512;BMP280;39392;52.832;13.816;2022-10-26T01:33:34;101625.63;;;21.60
53512;BMP280;39392;52.832;13.816;2022-10-26T01:38:53;101616.78;;;21.58
53512;BMP280;39392;52.832;13.816;2022-10-26T01:43:54;101617.97;;;21.56
53512;BMP280;39392;52.832;13.816;2022-10-26T01:46:22;101615.25;;;21.56
53512;BMP280;39392;52.832;13.816;2022-10-26T01:48:50;101617.81;;;21.57
53512;BMP280;39392;52.832;13.816;2022-10-26T01:51:18;101616.78;;;21.58
53512;BMP280;39392;52.832;13.816;2022-10-26T01:53:45;101615.09;;;21.57
53512;BMP280;39392;52.832;13.816;2022-10-26T01:56:13;101614.22;;;21.57
53512;BMP280;39392;52.832;13.816;2022-10-26T01:58:55;101608.94;;;21.55
53512;BMP280;39392;52.832;13.816;2022-10-26T02:04:07;101611.16;;;21.52
53512;BMP280;39392;52.832;13.816;2022-10-26T02:09:24;101601.44;;;21.57
53512;BMP280;39392;52.832;13.816;2022-10-26T02:11:53;101596.50;;;21.53
53512;BMP280;39392;52.832;13.816;2022-10-26T02:14:28;101599.59;;;21.50
53512;BMP280;39392;52.832;13.816;2022-10-26T02:17:06;101606.72;;;21.51
53512;BMP280;39392;52.832;13.816;2022-10-26T02:19:42;101608.44;;;21.52
53512;BMP280;39392;52.832;13.816;2022-10-26T02:24:35;101597.38;;;21.53
53512;BMP280;39392;52.832;13.816;2022-10-26T02:27:03;101603.66;;;21.54
53512;BMP280;39392;52.832;13.816;2022-10-26T02:29:31;101601.97;;;21.53
53512;BMP280;39392;52.832;13.816;2022-10-26T02:31:59;101592.25;;;21.50
53512;BMP280;39392;52.832;13.816;2022-10-26T02:34:26;101590.56;;;21.49
53512;BMP280;39392;52.832;13.816;2022-10-26T02:36:54;101601.47;;;21.49
53512;BMP280;39392;52.832;13.816;2022-10-26T02:39:23;101602.13;;;21.43
53512;BMP280;39392;52.832;13.816;2022-10-26T02:41:49;101597.88;;;21.41
53512;BMP280;39392;52.832;13.816;2022-10-26T02:44:24;101599.25;;;21.36
53512;BMP280;39392;52.832;13.816;2022-10-26T02:46:51;101587.66;;;21.34
53512;BMP280;39392;52.832;13.816;2022-10-26T02:49:19;101593.94;;;21.35
53512;BMP280;39392;52.832;13.816;2022-10-26T02:57:00;101604.19;;;21.41
53512;BMP280;39392;52.832;13.816;2022-10-26T02:59:29;101595.81;;;21.43
53512;BMP280;39392;52.832;13.816;2022-10-26T03:01:57;101597.88;;;21.41
53512;BMP280;39392;52.832;13.816;2022-10-26T03:04:29;101611.53;;;21.41
53512;BMP280;39392;52.832;13.816;2022-10-26T03:06:55;101605.88;;;21.42
53512;BMP280;39392;52.832;13.816;2022-10-26T03:09:22;101596.69;;;21.43
53512;BMP280;39392;52.832;13.816;2022-10-26T03:11:51;101601.28;;;21.43
53512;BMP280;39392;52.832;13.816;2022-10-26T03:14:17;101599.59;;;21.42
53512;BMP280;39392;52.832;13.816;2022-10-26T03:16:43;101601.78;;;21.38
53512;BMP280;39392;52.832;13.816;2022-10-26T03:19:10;101601.97;;;21.36
53512;BMP280;39392;52.832;13.816;2022-10-26T03:21:36;101600.94;;;21.37
53512;BMP280;39392;52.832;13.816;2022-10-26T03:24:03;101592.75;;;21.37
53512;BMP280;39392;52.832;13.816;2022-10-26T03:26:29;101596.16;;;21.39
53512;BMP280;39392;52.832;13.816;2022-10-26T03:28:56;101608.78;;;21.41
53512;BMP280;39392;52.832;13.816;2022-10-26T03:31:22;101607.06;;;21.39
53512;BMP280;39392;52.832;13.816;2022-10-26T03:33:48;101611.84;;;21.37
53512;BMP280;39392;52.832;13.816;2022-10-26T03:36:15;101611.84;;;21.37
53512;BMP280;39392;52.832;13.816;2022-10-26T03:38:41;101606.56;;;21.36
53512;BMP280;39392;52.832;13.816;2022-10-26T03:41:08;101614.59;;;21.37
53512;BMP280;39392;52.832;13.816;2022-10-26T03:43:34;101617.66;;;21.34
53512;BMP280;39392;52.832;13.816;2022-10-26T03:46:00;101618.13;;;21.30
53512;BMP280;39392;52.832;13.816;2022-10-26T03:48:27;101616.44;;;21.29
53512;BMP280;39392;52.832;13.816;2022-10-26T03:50:56;101619.16;;;21.29
53512;BMP280;39392;52.832;13.816;2022-10-26T03:53:22;101619.16;;;21.29
53512;BMP280;39392;52.832;13.816;2022-10-26T03:55:49;101624.09;;;21.25
53512;BMP280;39392;52.832;13.816;2022-10-26T03:58:15;101621.69;;;21.30
53512;BMP280;39392;52.832;13.816;2022-10-26T04:00:41;101615.22;;;21.31
53512;BMP280;39392;52.832;13.816;2022-10-26T04:03:08;101617.59;;;21.26
53512;BMP280;39392;52.832;13.816;2022-10-26T04:05:34;101628.19;;;21.29
53512;BMP280;39392;52.832;13.816;2022-10-26T04:08:00;101627.16;;;21.30
53512;BMP280;39392;52.832;13.816;2022-10-26T04:10:30;101622.06;;;21.35
53512;BMP280;39392;52.832;13.816;2022-10-26T04:12:57;101629.06;;;21.38
53512;BMP280;39392;52.832;13.816;2022-10-26T04:15:26;101624.28;;;21.40
53512;BMP280;39392;52.832;13.816;2022-10-26T04:17:57;101634.69;;;21.36
53512;BMP280;39392;52.832;13.816;2022-10-26T04:20:23;101628.72;;;21.33
53512;BMP280;39392;52.832;13.816;2022-10-26T04:23:00;101626.00;;;21.33
53512;BMP280;39392;52.832;13.816;2022-10-26T04:25:27;101635.88;;;21.34
53512;BMP280;39392;52.832;13.816;2022-10-26T04:27:58;101635.88;;;21.34
53512;BMP280;39392;52.832;13.816;2022-10-26T04:30:24;101636.06;;;21.32
53512;BMP280;39392;52.832;13.816;2022-10-26T04:32:51;101634.00;;;21.34
53512;BMP280;39392;52.832;13.816;2022-10-26T04:35:17;101628.03;;;21.39
53512;BMP280;39392;52.832;13.816;2022-10-26T04:37:44;101631.47;;;21.41
53512;BMP280;39392;52.832;13.816;2022-10-26T04:40:11;101632.13;;;21.43
53512;BMP280;39392;52.832;13.816;2022-10-26T04:42:44;101633.34;;;21.41
53512;BMP280;39392;52.832;13.816;2022-10-26T04:45:11;101635.88;;;21.42
53512;BMP280;39392;52.832;13.816;2022-10-26T04:47:38;101635.19;;;21.40
53512;BMP280;39392;52.832;13.816;2022-10-26T04:50:04;101630.09;;;21.37
53512;BMP280;39392;52.832;13.816;2022-10-26T04:52:31;101639.97;;;21.38
53512;BMP280;39392;52.832;13.816;2022-10-26T04:54:57;101623.63;;;21.38
53512;BMP280;39392;52.832;13.816;2022-10-26T04:57:23;101637.25;;;21.38
53512;BMP280;39392;52.832;13.816;2022-10-26T04:59:50;101637.06;;;21.39
53512;BMP280;39392;52.832;13.816;2022-10-26T05:02:16;101627.88;;;21.41
53512;BMP280;39392;52.832;13.816;2022-10-26T05:04:43;101634.19;;;21.41
53512;BMP280;39392;52.832;13.816;2022-10-26T05:07:09;101635.03;;;21.42
53512;BMP280;39392;52.832;13.816;2022-10-26T05:09:36;101634.19;;;21.41
53512;BMP280;39392;52.832;13.816;2022-10-26T05:12:02;101631.47;;;21.41
53512;BMP280;39392;52.832;13.816;2022-10-26T05:14:29;101629.59;;;21.42
53512;BMP280;39392;52.832;13.816;2022-10-26T05:16:55;101631.47;;;21.41
53512;BMP280;39392;52.832;13.816;2022-10-26T05:19:23;101629.72;;;21.40
53512;BMP280;39392;52.832;13.816;2022-10-26T05:21:49;101634.00;;;21.43
53512;BMP280;39392;52.832;13.816;2022-10-26T05:24:18;101632.66;;;21.38
53512;BMP280;39392;52.832;13.816;2022-10-26T05:26:45;101639.13;;;21.37
53512;BMP280;39392;52.832;13.816;2022-10-26T05:29:11;101638.09;;;21.38
53512;BMP280;39392;52.832;13.816;2022-10-26T05:31:38;101639.97;;;21.38
53512;BMP280;39392;52.832;13.816;2022-10-26T05:34:04;101637.91;;;21.40
53512;BMP280;39392;52.832;13.816;2022-10-26T05:36:31;101633.16;;;21.42
53512;BMP280;39392;52.832;13.816;2022-10-26T05:38:57;101624.13;;;21.42
53512;BMP280;39392;52.832;13.816;2022-10-26T05:41:24;101637.59;;;21.43
53512;BMP280;39392;52.832;13.816;2022-10-26T05:43:51;101650.19;;;21.44
53512;BMP280;39392;52.832;13.816;2022-10-26T05:46:17;101638.44;;;21.44
53512;BMP280;39392;52.832;13.816;2022-10-26T05:48:44;101644.06;;;21.42
53512;BMP280;39392;52.832;13.816;2022-10-26T05:51:10;101654.97;;;21.42
53512;BMP280;39392;52.832;13.816;2022-10-26T05:53:37;101654.28;;;21.40
53512;BMP280;39392;52.832;13.816;2022-10-26T05:56:32;101647.81;;;21.41
53512;BMP280;39392;52.832;13.816;2022-10-26T05:58:51;101649.84;;;21.39
53512;BMP280;39392;52.832;13.816;2022-10-26T06:01:39;101647.97;;;21.39
53512;BMP280;39392;52.832;13.816;2022-10-26T06:06:52;101653.78;;;21.36
53512;BMP280;39392;52.832;13.816;2022-10-26T06:09:19;101661.97;;;21.36
53512;BMP280;39392;52.832;13.816;2022-10-26T06:11:46;101668.94;;;21.39
53512;BMP280;39392;52.832;13.816;2022-10-26T06:14:13;101666.41;;;21.37
53512;BMP280;39392;52.832;13.816;2022-10-26T06:17:00;101665.53;;;21.37
53512;BMP280;39392;52.832;13.816;2022-10-26T06:29:54;101676.44;;;21.37
53512;BMP280;39392;52.832;13.816;2022-10-26T06:32:22;101683.78;;;21.36
53512;BMP280;39392;52.832;13.816;2022-10-26T06:34:50;101683.78;;;21.36
53512;BMP280;39392;52.832;13.816;2022-10-26T06:37:18;101681.06;;;21.36
53512;BMP280;39392;52.832;13.816;2022-10-26T06:39:46;101682.91;;;21.36
53512;BMP280;39392;52.832;13.816;2022-10-26T06:42:19;101676.59;;;21.35
53512;BMP280;39392;52.832;13.816;2022-10-26T06:44:45;101683.09;;;21.34
53512;BMP280;39392;52.832;13.816;2022-10-26T06:47:17;101677.63;;;21.34
53512;BMP280;39392;52.832;13.816;2022-10-26T06:49:57;101687.88;;;21.32
53512;BMP280;39392;52.832;13.816;2022-10-26T06:52:34;101685.16;;;21.32
53512;BMP280;39392;52.832;13.816;2022-10-26T06:55:02;101685.16;;;21.32
53512;BMP280;39392;52.832;13.816;2022-10-26T06:57:34;101685.16;;;21.32
53512;BMP280;39392;52.832;13.816;2022-10-26T07:00:03;101695.19;;;21.32
53512;BMP280;39392;52.832;13.816;2022-10-26T07:02:29;101697.03;;;21.31
53512;BMP280;39392;52.832;13.816;2022-10-26T07:04:56;101694.28;;;21.31
53512;BMP280;39392;52.832;13.816;2022-10-26T07:07:24;101697.03;;;21.31
53512;BMP280;39392;52.832;13.816;2022-10-26T07:09:51;101708.84;;;21.32
53512;BMP280;39392;52.832;13.816;2022-10-26T07:12:18;101714.28;;;21.32
53512;BMP280;39392;52.832;13.816;2022-10-26T07:14:44;101715.13;;;21.32
53512;BMP280;39392;52.832;13.816;2022-10-26T07:17:11;101708.94;;;21.30
53512;BMP280;39392;52.832;13.816;2022-10-26T07:19:37;101714.41;;;21.30
53512;BMP280;39392;52.832;13.816;2022-10-26T07:22:05;101712.53;;;21.31
53512;BMP280;39392;52.832;13.816;2022-10-26T07:24:32;101709.13;;;21.29
53512;BMP280;39392;52.832;13.816;2022-10-26T07:26:58;101708.09;;;21.30
53512;BMP280;39392;52.832;13.816;2022-10-26T07:29:25;101702.66;;;21.30
53512;BMP280;39392;52.832;13.816;2022-10-26T07:31:52;101701.81;;;21.29
53512;BMP280;39392;52.832;13.816;2022-10-26T07:34:19;101708.09;;;21.30
53512;BMP280;39392;52.832;13.816;2022-10-26T07:36:45;101713.38;;;21.31
53512;BMP280;39392;52.832;13.816;2022-10-26T07:39:12;101720.59;;;21.32
53512;BMP280;39392;52.832;13.816;2022-10-26T07:41:38;101716.09;;;21.31
53512;BMP280;39392;52.832;13.816;2022-10-26T07:44:05;101712.41;;;21.32
53512;BMP280;39392;52.832;13.816;2022-10-26T07:46:31;101712.91;;;21.36
53512;BMP280;39392;52.832;13.816;2022-10-26T07:48:57;101713.78;;;21.36
53512;BMP280;39392;52.832;13.816;2022-10-26T07:51:24;101705.25;;;21.39
53512;BMP280;39392;52.832;13.816;2022-10-26T07:53:50;101705.09;;;21.41
53512;BMP280;39392;52.832;13.816;2022-10-26T07:56:17;101709.53;;;21.42
53512;BMP280;39392;52.832;13.816;2022-10-26T07:58:43;101717.69;;;21.42
53512;BMP280;39392;52.832;13.816;2022-10-26T08:01:11;101713.78;;;21.45
53512;BMP280;39392;52.832;13.816;2022-10-26T08:03:38;101715.50;;;21.46
53512;BMP280;39392;52.832;13.816;2022-10-26T08:06:05;101712.59;;;21.47
53512;BMP280;39392;52.832;13.816;2022-10-26T08:08:32;101709.84;;;21.47
53512;BMP280;39392;52.832;13.816;2022-10-26T08:10:59;101715.16;;;21.49
53512;BMP280;39392;52.832;13.816;2022-10-26T08:13:25;101706.97;;;21.49
53512;BMP280;39392;52.832;13.816;2022-10-26T08:15:58;101708.69;;;21.50
53512;BMP280;39392;52.832;13.816;2022-10-26T08:18:25;101708.50;;;21.51
53512;BMP280;39392;52.832;13.816;2022-10-26T08:20:52;101714.66;;;21.53
53512;BMP280;39392;52.832;13.816;2022-10-26T08:23:27;101709.19;;;21.53
53512;BMP280;39392;52.832;13.816;2022-10-26T08:25:57;101712.91;;;21.52
53512;BMP280;39392;52.832;13.816;2022-10-26T08:28:23;101711.75;;;21.55
53512;BMP280;39392;52.832;13.816;2022-10-26T08:30:49;101709.69;;;21.57
53512;BMP280;39392;52.832;13.816;2022-10-26T08:33:16;101712.41;;;21.57
53512;BMP280;39392;52.832;13.816;2022-10-26T08:35:42;101715.13;;;21.57
53512;BMP280;39392;52.832;13.816;2022-10-26T08:38:09;101714.28;;;21.56
53512;BMP280;39392;52.832;13.816;2022-10-26T08:40:37;101714.13;;;21.58
53512;BMP280;39392;52.832;13.816;2022-10-26T08:43:11;101704.06;;;21.58
53512;BMP280;39392;52.832;13.816;2022-10-26T08:45:43;101712.06;;;21.60
53512;BMP280;39392;52.832;13.816;2022-10-26T08:48:14;101707.47;;;21.60
53512;BMP280;39392;52.832;13.816;2022-10-26T08:50:44;101702.72;;;21.62
53512;BMP280;39392;52.832;13.816;2022-10-26T08:55:41;101700.66;;;21.64
53512;BMP280;39392;52.832;13.816;2022-10-26T08:58:14;101696.03;;;21.65
53512;BMP280;39392;52.832;13.816;2022-10-26T09:00:41;101697.78;;;21.66
53512;BMP280;39392;52.832;13.816;2022-10-26T09:03:12;101701.34;;;21.67
53512;BMP280;39392;52.832;13.816;2022-10-26T09:08:30;101703.06;;;21.68
53512;BMP280;39392;52.832;13.816;2022-10-26T09:11:05;101709.03;;;21.71
53512;BMP280;39392;52.832;13.816;2022-10-26T09:23:51;101713.97;;;21.76
53512;BMP280;39392;52.832;13.816;2022-10-26T09:27:02;101727.28;;;21.79
53512;BMP280;39392;52.832;13.816;2022-10-26T09:29:10;101709.03;;;21.79
53512;BMP280;39392;52.832;13.816;2022-10-26T09:31:39;101712.59;;;21.80
53512;BMP280;39392;52.832;13.816;2022-10-26T09:34:15;101715.16;;;21.81
53512;BMP280;39392;52.832;13.816;2022-10-26T09:36:43;101717.72;;;21.83
53512;BMP280;39392;52.832;13.816;2022-10-26T09:39:28;101713.97;;;21.84
53512;BMP280;39392;52.832;13.816;2022-10-26T09:41:58;101716.69;;;21.84
53512;BMP280;39392;52.832;13.816;2022-10-26T09:44:33;101707.47;;;21.85
53512;BMP280;39392;52.832;13.816;2022-10-26T09:49:36;101722.81;;;21.86
53512;BMP280;39392;52.832;13.816;2022-10-26T09:52:06;101719.94;;;21.87
53512;BMP280;39392;52.832;13.816;2022-10-26T09:54:33;101715.31;;;21.88
53512;BMP280;39392;52.832;13.816;2022-10-26T09:56:59;101708.84;;;21.89
53512;BMP280;39392;52.832;13.816;2022-10-26T09:59:27;101712.41;;;21.89
53512;BMP280;39392;52.832;13.816;2022-10-26T10:01:55;101721.28;;;21.92
53512;BMP280;39392;52.832;13.816;2022-10-26T10:04:22;101709.34;;;21.93
53512;BMP280;39392;52.832;13.816;2022-10-26T10:06:49;101724.88;;;21.92
53512;BMP280;39392;52.832;13.816;2022-10-26T10:09:17;101715.84;;;21.92
53512;BMP280;39392;52.832;13.816;2022-10-26T10:11:53;101723.84;;;21.93
53512;BMP280;39392;52.832;13.816;2022-10-26T10:17:20;101716.50;;;21.94
53512;BMP280;39392;52.832;13.816;2022-10-26T10:19:47;101718.22;;;21.95
53512;BMP280;39392;52.832;13.816;2022-10-26T10:24:41;101721.81;;;21.95
53512;BMP280;39392;52.832;13.816;2022-10-26T10:29:39;101712.59;;;21.96
53512;BMP280;39392;52.832;13.816;2022-10-26T10:32:08;101706.09;;;21.97
53512;BMP280;39392;52.832;13.816;2022-10-26T10:34:39;101710.53;;;21.98
53512;BMP280;39392;52.832;13.816;2022-10-26T10:37:06;101703.38;;;21.97
53512;BMP280;39392;52.832;13.816;2022-10-26T10:39:47;101705.06;;;21.98
53512;BMP280;39392;52.832;13.816;2022-10-26T10:42:17;101705.94;;;21.99
53512;BMP280;39392;52.832;13.816;2022-10-26T10:44:46;101707.63;;;22.00
53512;BMP280;39392;52.832;13.816;2022-10-26T10:47:22;101704.91;;;22.00
53512;BMP280;39392;52.832;13.816;2022-10-26T10:49:50;101709.34;;;22.01
53512;BMP280;39392;52.832;13.816;2022-10-26T10:52:27;101719.22;;;22.02
53512;BMP280;39392;52.832;13.816;2022-10-26T10:54:57;101711.88;;;22.02
53512;BMP280;39392;52.832;13.816;2022-10-26T11:10:23;101709.00;;;22.04
53512;BMP280;39392;52.832;13.816;2022-10-26T11:12:56;101703.53;;;22.04
53512;BMP280;39392;52.832;13.816;2022-10-26T11:15:25;101703.53;;;22.04
53512;BMP280;39392;52.832;13.816;2022-10-26T11:20:34;101700.81;;;22.04
53512;BMP280;39392;52.832;13.816;2022-10-26T11:25:38;101705.22;;;22.05
53512;BMP280;39392;52.832;13.816;2022-10-26T11:30:39;101714.28;;;22.05
53512;BMP280;39392;52.832;13.816;2022-10-26T11:33:10;101719.72;;;22.05
53512;BMP280;39392;52.832;13.816;2022-10-26T11:38:13;101704.19;;;22.06
53512;BMP280;39392;52.832;13.816;2022-10-26T11:43:29;101696.19;;;22.04
53512;BMP280;39392;52.832;13.816;2022-10-26T11:46:03;101691.59;;;22.05
53512;BMP280;39392;52.832;13.816;2022-10-26T11:51:00;101692.44;;;22.05
53512;BMP280;39392;52.832;13.816;2022-10-26T11:53:32;101682.56;;;22.04
53512;BMP280;39392;52.832;13.816;2022-10-26T11:56:01;101685.28;;;22.04
53512;BMP280;39392;52.832;13.816;2022-10-26T11:58:29;101683.41;;;22.05
53512;BMP280;39392;52.832;13.816;2022-10-26T12:01:03;101677.94;;;22.05
53512;BMP280;39392;52.832;13.816;2022-10-26T12:03:35;101670.59;;;22.05
53512;BMP280;39392;52.832;13.816;2022-10-26T12:06:03;101673.31;;;22.05
53512;BMP280;39392;52.832;13.816;2022-10-26T12:08:30;101675.88;;;22.07
53512;BMP280;39392;52.832;13.816;2022-10-26T12:21:18;101667.03;;;22.05
53512;BMP280;39392;52.832;13.816;2022-10-26T12:26:47;101669.75;;;22.05
53512;BMP280;39392;52.832;13.816;2022-10-26T12:32:03;101662.59;;;22.04
53512;BMP280;39392;52.832;13.816;2022-10-26T12:39:32;101664.28;;;22.05
53512;BMP280;39392;52.832;13.816;2022-10-26T12:44:38;101655.25;;;22.04
53512;BMP280;39392;52.832;13.816;2022-10-26T12:47:07;101652.34;;;22.06
53512;BMP280;39392;52.832;13.816;2022-10-26T12:52:19;101661.56;;;22.05
53512;BMP280;39392;52.832;13.816;2022-10-26T12:57:36;101655.41;;;22.03
53512;BMP280;39392;52.832;13.816;2022-10-26T13:00:11;101659.00;;;22.03
53512;BMP280;39392;52.832;13.816;2022-10-26T13:07:37;101649.78;;;22.04
53512;BMP280;39392;52.832;13.816;2022-10-26T13:20:31;101653.03;;;22.08
53512;BMP280;39392;52.832;13.816;2022-10-26T13:23:00;101653.88;;;22.08
53512;BMP280;39392;52.832;13.816;2022-10-26T13:25:32;101661.03;;;22.09
53512;BMP280;39392;52.832;13.816;2022-10-26T13:28:05;101660.72;;;22.12
53512;BMP280;39392;52.832;13.816;2022-10-26T13:32:58;101650.66;;;22.13
53512;BMP280;39392;52.832;13.816;2022-10-26T13:35:26;101642.47;;;22.13
53512;BMP280;39392;52.832;13.816;2022-10-26T13:37:53;101641.28;;;22.16
53512;BMP280;39392;52.832;13.816;2022-10-26T13:40:25;101653.03;;;22.16
53512;BMP280;39392;52.832;13.816;2022-10-26T13:43:01;101662.06;;;22.17
53512;BMP280;39392;52.832;13.816;2022-10-26T13:45:29;101667.34;;;22.18
53512;BMP280;39392;52.832;13.816;2022-10-26T13:48:04;101661.03;;;22.18
53512;BMP280;39392;52.832;13.816;2022-10-26T13:50:35;101657.28;;;22.19
53512;BMP280;39392;52.832;13.816;2022-10-26T13:53:06;101658.13;;;22.19
53512;BMP280;39392;52.832;13.816;2022-10-26T13:55:42;101664.47;;;22.20
53512;BMP280;39392;52.832;13.816;2022-10-26T13:58:19;101665.13;;;22.22
53512;BMP280;39392;52.832;13.816;2022-10-26T14:00:58;101668.91;;;22.21
53512;BMP280;39392;52.832;13.816;2022-10-26T14:03:26;101668.03;;;22.20
53512;BMP280;39392;52.832;13.816;2022-10-26T14:05:52;101676.25;;;22.20
53512;BMP280;39392;52.832;13.816;2022-10-26T14:08:19;101680.66;;;22.21
53512;BMP280;39392;52.832;13.816;2022-10-26T14:10:51;101681.50;;;22.22
53512;BMP280;39392;52.832;13.816;2022-10-26T14:13:19;101673.13;;;22.23
53512;BMP280;39392;52.832;13.816;2022-10-26T14:15:47;101672.97;;;22.25
53512;BMP280;39392;52.832;13.816;2022-10-26T14:18:15;101671.94;;;22.26
53512;BMP280;39392;52.832;13.816;2022-10-26T14:20:46;101678.06;;;22.28
53512;BMP280;39392;52.832;13.816;2022-10-26T14:23:24;101675.53;;;22.26
53512;BMP280;39392;52.832;13.816;2022-10-26T14:25:54;101687.28;;;22.27
53512;BMP280;39392;52.832;13.816;2022-10-26T14:28:25;101677.22;;;22.27
53512;BMP280;39392;52.832;13.816;2022-10-26T14:30:52;101681.84;;;22.27
53512;BMP280;39392;52.832;13.816;2022-10-26T14:33:22;101678.25;;;22.26
53512;BMP280;39392;52.832;13.816;2022-10-26T14:35:49;101671.09;;;22.25
53512;BMP280;39392;52.832;13.816;2022-10-26T14:38:18;101676.38;;;22.27
53512;BMP280;39392;52.832;13.816;2022-10-26T14:40:46;101682.69;;;22.27
53512;BMP280;39392;52.832;13.816;2022-10-26T14:43:17;101689.88;;;22.28
53512;BMP280;39392;52.832;13.816;2022-10-26T14:45:47;101687.13;;;22.28
53512;BMP280;39392;52.832;13.816;2022-10-26T14:48:19;101692.41;;;22.30
53512;BMP280;39392;52.832;13.816;2022-10-26T14:53:50;101701.63;;;22.29
53512;BMP280;39392;52.832;13.816;2022-10-26T14:58:48;101695.34;;;22.28
53512;BMP280;39392;52.832;13.816;2022-10-26T15:03:44;101708.78;;;22.30
53512;BMP280;39392;52.832;13.816;2022-10-26T15:08:58;101705.38;;;22.28
53512;BMP280;39392;52.832;13.816;2022-10-26T15:11:25;101706.25;;;22.28
53512;BMP280;39392;52.832;13.816;2022-10-26T15:13:52;101705.38;;;22.28
53512;BMP280;39392;52.832;13.816;2022-10-26T15:16:20;101704.19;;;22.30
53512;BMP280;39392;52.832;13.816;2022-10-26T15:18:48;101706.06;;;22.30
53512;BMP280;39392;52.832;13.816;2022-10-26T15:21:29;101703.34;;;22.30
53512;BMP280;39392;52.832;13.816;2022-10-26T15:23:57;101705.03;;;22.31
53512;BMP280;39392;52.832;13.816;2022-10-26T15:26:24;101707.75;;;22.31
53512;BMP280;39392;52.832;13.816;2022-10-26T15:28:51;101704.19;;;22.30
53512;BMP280;39392;52.832;13.816;2022-10-26T15:36:18;101702.31;;;22.31
53512;BMP280;39392;52.832;13.816;2022-10-26T15:38:45;101709.47;;;22.32
53512;BMP280;39392;52.832;13.816;2022-10-26T15:43:52;101698.53;;;22.32
53512;BMP280;39392;52.832;13.816;2022-10-26T15:46:22;101696.84;;;22.31
53512;BMP280;39392;52.832;13.816;2022-10-26T15:48:53;101697.69;;;22.31
53512;BMP280;39392;52.832;13.816;2022-10-26T15:51:20;101711.19;;;22.33
53512;BMP280;39392;52.832;13.816;2022-10-26T15:53:46;101698.53;;;22.32
53512;BMP280;39392;52.832;13.816;2022-10-26T15:56:14;101702.31;;;22.31
53512;BMP280;39392;52.832;13.816;2022-10-26T15:58:42;101703.16;;;22.31
53512;BMP280;39392;52.832;13.816;2022-10-26T16:01:15;101704.19;;;22.30
53512;BMP280;39392;52.832;13.816;2022-10-26T16:03:42;101709.66;;;22.30
53512;BMP280;39392;52.832;13.816;2022-10-26T16:06:16;101709.66;;;22.30
53512;BMP280;39392;52.832;13.816;2022-10-26T16:08:44;101722.25;;;22.31
53512;BMP280;39392;52.832;13.816;2022-10-26T16:11:14;101718.53;;;22.32
53512;BMP280;39392;52.832;13.816;2022-10-26T16:13:40;101716.81;;;22.31
53512;BMP280;39392;52.832;13.816;2022-10-26T16:16:11;101717.84;;;22.30
53512;BMP280;39392;52.832;13.816;2022-10-26T16:18:38;101720.56;;;22.30
53512;BMP280;39392;52.832;13.816;2022-10-26T16:21:04;101728.56;;;22.32
53512;BMP280;39392;52.832;13.816;2022-10-26T16:23:31;101728.56;;;22.32
53512;BMP280;39392;52.832;13.816;2022-10-26T16:25:57;101732.34;;;22.31
53512;BMP280;39392;52.832;13.816;2022-10-26T16:28:24;101725.19;;;22.30
53512;BMP280;39392;52.832;13.816;2022-10-26T16:30:50;101729.63;;;22.31
53512;BMP280;39392;52.832;13.816;2022-10-26T16:33:16;101732.34;;;22.31